• Join FlightAware (Why Join?)
  • Login
  • US Flag 
05:53AM EDT


 

Airport Tracker/Info


-or-


 

Live Flight TrackerFlight Track Log ✈ DAL95 ✈ 18-Apr-2013 ✈ LEBL / BCN - KJFK

Flight Track Log - Related Links

Times and Time Zones

All times are in EDT time to prevent confusion due to time zone crossing. See the DAL95 flight status page for this flight to view local times or setup timezone preferences in your user account.

Time Position Orientation Groundspeed Altitude Reporting Facility
EDT Latitude Longitude Course Direction KTS MPH feet Rate Location/Type
04:34AM 41.2970 2.1180 75° East 151 174 900  Level FlightAware
04:34AM 41.2900 2.1410 112° Southeast 162 186 1,600 1,740 Climbing FlightAware
04:35AM 41.2770 2.1650 126° Southeast 162 186 2,500 1,800 Climbing FlightAware
04:35AM 41.2740 2.1740 114° Southeast 164 189 2,800 1,200 Climbing FlightAware
04:35AM 41.2710 2.1890 105° East 175 201 3,000 780 Climbing FlightAware
04:35AM 41.2680 2.2250 96° East 214 246 3,400 900 Climbing FlightAware
04:36AM 41.2650 2.2680 95° East 253 291 3,900 1,380 Climbing FlightAware
04:36AM 41.2610 2.3080 98° East 274 315 4,700 2,100 Climbing FlightAware
04:37AM 41.2590 2.3340 96° East 279 321 5,300 2,520 Climbing FlightAware
04:37AM 41.2550 2.3690 99° East 282 325 6,200 2,640 Climbing FlightAware
04:37AM 41.2660 2.4110 71° East 286 329 7,300 2,700 Climbing FlightAware
04:38AM 41.2760 2.4220 40° Northeast 284 327 7,800 2,640 Climbing FlightAware
04:38AM 41.2930 2.4310 22° Northeast 281 323 8,400 2,220 Climbing FlightAware
04:38AM 41.3330 2.4420 12° North 293 337 9,500 1,920 Climbing FlightAware
04:39AM 41.3850 2.4700 22° Northeast 315 362 10,700 1,440 Climbing FlightAware
04:40AM 41.4490 2.5110 26° Northeast 356 410 11,600 1,620 Climbing FlightAware
04:40AM 41.5080 2.5500 26° Northeast 368 423 13,000 2,100 Climbing FlightAware
04:41AM 41.5750 2.5810 19° North 375 432 14,400 1,920 Climbing FlightAware
04:42AM 41.6250 2.5690 350° North 378 435 15,300 2,100 Climbing FlightAware
04:42AM 41.6820 2.5130 324° Northwest 376 433 16,900 2,160 Climbing FlightAware
04:42AM 41.6930 2.4840 297° West 379 436 17,300 1,680 Climbing FlightAware
04:43AM 41.7100 2.3780 282° West 389 448 18,600 1,680 Climbing FlightAware
04:44AM 41.7260 2.2820 283° West 395 455 19,700 1,620 Climbing FlightAware
04:45AM 41.7400 2.1840 281° West 401 461 20,800 1,620 Climbing FlightAware
04:45AM 41.7500 2.1110 280° West 405 466 21,600 1,440 Climbing FlightAware
04:46AM 41.7630 2.0160 280° West 413 475 22,500 1,440 Climbing FlightAware
04:46AM 41.7790 1.9000 281° West 416 479 23,700 1,380 Climbing FlightAware
04:47AM 41.7930 1.7970 280° West 422 486 24,500 1,080 Climbing FlightAware
04:48AM 41.8100 1.6780 281° West 431 496 25,300 1,200 Climbing FlightAware
04:49AM 41.8240 1.5730 280° West 433 498 26,200 1,320 Climbing FlightAware
04:49AM 41.8380 1.4660 280° West 434 499 27,100 1,260 Climbing FlightAware
04:50AM 41.8540 1.3510 281° West 434 499 28,000 1,020 Climbing FlightAware
04:51AM 41.8680 1.2450 280° West 440 506 28,600 840 Climbing FlightAware
04:51AM 41.8850 1.1180 280° West 448 516 29,200 780 Climbing FlightAware
04:52AM 41.8970 1.0250 280° West 450 518 29,700 900 Climbing FlightAware
04:53AM 41.9130 0.9030 280° West 451 519 30,400 840 Climbing FlightAware
04:53AM 41.9280 0.7790 279° West 455 524 31,000 1,020 Climbing FlightAware
04:54AM 41.9430 0.6650 280° West 449 517 31,900 1,200 Climbing FlightAware
04:55AM 41.9580 0.5480 280° West 443 510 32,700 1,020 Climbing FlightAware
04:56AM 41.9740 0.4300 280° West 444 511 33,400 960 Climbing FlightAware
04:56AM 42.0030 0.3150 289° West 441 507 34,100 720 Climbing FlightAware
04:58AM 42.0750 0.1200 296° West 445 512 35,000 480 Climbing FlightAware
04:58AM 42.1190 0.0040 297° West 445 512 35,100  Climbing FlightAware
04:59AM 42.1560 -0.0970 296° West 449 517 35,000  Descending FlightAware
05:00AM 42.1930 -0.1970 297° West 449 517 35,100 60 Climbing FlightAware
05:00AM 42.2330 -0.3060 296° West 450 518 35,100  Level FlightAware
05:01AM 42.2700 -0.4060 297° West 450 518 35,100  Level FlightAware
05:02AM 42.3130 -0.5240 296° West 449 517 35,100  Level FlightAware
05:03AM 42.3490 -0.6240 296° West 449 517 35,100  Level FlightAware
05:03AM 42.3880 -0.7300 297° West 450 518 35,100  Level FlightAware
05:04AM 42.4170 -0.8100 296° West 451 519 35,100  Level FlightAware
05:04AM 42.4550 -0.9140 296° West 451 519 35,100  Level FlightAware
05:05AM 42.4900 -1.0140 295° West 450 518 35,100  Level FlightAware
05:06AM 42.5310 -1.1290 296° West 448 516 35,100  Level FlightAware
05:07AM 42.5680 -1.2320 296° West 448 516 35,100  Level FlightAware
05:07AM 42.5970 -1.3120 296° West 446 513 35,100  Level FlightAware
05:08AM 42.6390 -1.4320 295° West 446 513 35,100  Level FlightAware
05:09AM 42.6780 -1.5420 296° West 445 512 35,100  Level FlightAware
05:09AM 42.7190 -1.6590 296° West 445 512 35,100  Level FlightAware
05:10AM 42.7600 -1.7590 299° West 450 518 35,100  Level FlightAware
05:11AM 42.8060 -1.8550 303° West 451 519 35,100 60 Level FlightAware
05:11AM 42.8530 -1.9550 303° West 451 519 35,200 480 Climbing FlightAware
05:12AM 42.8970 -2.0500 302° West 447 514 35,800 900 Climbing FlightAware
05:13AM 42.9460 -2.1550 303° West 442 509 36,500 660 Climbing FlightAware
05:14AM 42.9890 -2.2480 302° West 445 512 36,800 360 Climbing FlightAware
05:14AM 43.0330 -2.3420 303° West 445 512 37,000 120 Climbing FlightAware
05:15AM 43.0850 -2.4540 302° West 446 513 37,000  Level FlightAware
05:16AM 43.1280 -2.5500 302° West 449 517 37,000 60 Level FlightAware
05:16AM 43.1760 -2.6530 303° West 450 518 37,100 60 Climbing FlightAware
05:17AM 43.2190 -2.7470 302° West 450 518 37,100  Level FlightAware
05:18AM 43.2620 -2.8450 301° West 446 513 37,100  Level FlightAware
05:18AM 43.2910 -2.9350 294° West 439 505 37,100 -120 Level FlightAware
05:19AM 43.3150 -3.0580 285° West 432 497 37,000  Descending FlightAware
05:20AM 43.3290 -3.1930 278° West 430 495 37,100  Climbing FlightAware
05:21AM 43.3390 -3.3020 277° West 430 495 37,000 -120 Descending FlightAware
05:21AM 43.3480 -3.4030 277° West 429 494 37,000 60 Level FlightAware
05:22AM 43.3620 -3.5590 277° West 428 493 37,100 60 Climbing FlightAware
05:23AM 43.3710 -3.6510 278° West 428 493 37,100  Level FlightAware
05:24AM 43.3790 -3.7430 277° West 428 493 37,100  Level FlightAware
05:24AM 43.3870 -3.8350 277° West 428 493 37,100  Level FlightAware
05:25AM 43.3950 -3.9270 277° West 428 493 37,100 -120 Level FlightAware
05:26AM 43.4140 -4.1400 277° West 422 486 37,000  Descending FlightAware
05:26AM 43.4230 -4.2470 277° West 421 484 37,100  Climbing FlightAware
05:27AM 43.4320 -4.3610 276° West 419 482 37,000 -120 Descending FlightAware
05:28AM 43.4420 -4.4850 276° West 420 483 37,000  Level FlightAware
05:29AM 43.4530 -4.6190 276° West 420 483 37,000 60 Level FlightAware
05:29AM 43.4630 -4.7380 277° West 421 484 37,100  Climbing FlightAware
05:30AM 43.4720 -4.8440 277° West 422 486 37,000 -120 Descending FlightAware
05:31AM 43.4800 -4.9470 276° West 422 486 37,000 60 Level FlightAware
05:32AM 43.4980 -5.0670 282° West 431 496 37,100 60 Climbing FlightAware
05:32AM 43.5390 -5.1630 301° West 433 498 37,100  Level FlightAware
05:33AM 43.5800 -5.2620 300° West 432 497 37,100 -120 Level FlightAware
05:34AM 43.6230 -5.3690 299° West 430 495 37,000 -120 Descending FlightAware
05:34AM 43.6610 -5.4640 299° West 429 494 37,000 60 Level FlightAware
05:35AM 43.7050 -5.5730 299° West 427 491 37,100  Climbing FlightAware
05:36AM 43.7430 -5.6680 299° West 427 491 37,000 -300 Descending FlightAware
05:36AM 43.7810 -5.7620 299° West 431 496 36,700 -540 Descending FlightAware
05:37AM 43.8250 -5.8720 299° West 428 493 36,300 -480 Descending FlightAware
05:38AM 43.8620 -5.9670 298° West 427 491 36,100 -180 Descending FlightAware
05:39AM 43.9050 -6.0760 299° West 427 491 36,100  Level FlightAware
05:39AM 43.9430 -6.1710 299° West 426 490 36,100  Level FlightAware
05:40AM 43.9800 -6.2670 298° West 426 490 36,100  Level FlightAware
05:41AM 44.0230 -6.3760 299° West 427 491 36,100 -120 Level FlightAware
05:41AM 44.0600 -6.4710 298° West 427 491 36,000 -120 Descending FlightAware
05:42AM 44.1030 -6.5810 299° West 426 490 36,000 60 Level FlightAware
05:43AM 44.1390 -6.6750 298° West 425 489 36,100 60 Climbing FlightAware
05:43AM 44.1770 -6.7740 298° West 426 490 36,100  Level FlightAware
05:44AM 44.2190 -6.8830 298° West 426 490 36,100  Level FlightAware
05:45AM 44.2490 -6.9620 298° West 426 490 36,100  Level FlightAware
05:45AM 44.2880 -7.0630 298° West 426 490 36,100  Level FlightAware
05:46AM 44.3250 -7.1600 298° West 425 489 36,100  Level FlightAware
05:47AM 44.3730 -7.2860 298° West 424 488 36,100  Level FlightAware
05:48AM 44.4110 -7.3890 297° West 422 486 36,100  Level FlightAware
05:48AM 44.4450 -7.4790 298° West 419 482 36,100  Level FlightAware
05:50AM 44.5230 -7.6870 298° West 418 481 36,100 -60 Level FlightAware
05:50AM 44.5650 -7.7990 298° West 416 479 36,000  Descending FlightAware
05:52AM 44.6470 -8.0230 297° West 412 474 36,100  Climbing FlightAware
05:53AM 44.6860 -8.1300 297° West 410 472 36,100  Level FlightAware
05:54AM 44.7590 -8.3290 297° West 407 468 36,100  Level FlightAware
05:55AM 44.7930 -8.4230 297° West 406 467 36,100  Level FlightAware
05:56AM 44.8290 -8.5210 297° West 404 465 36,100  Level FlightAware
05:56AM 44.8630 -8.6160 297° West 404 465 36,100  Level FlightAware
05:57AM 44.8890 -8.6880 297° West 405 466 36,100  Level FlightAware
05:57AM 44.9200 -8.7730 297° West 405 466 36,100  Level FlightAware
05:58AM 44.9750 -8.9300 296° West 407 468 36,100  Level FlightAware
05:59AM 45.0050 -9.0140 297° West 407 468 36,100 -120 Level FlightAware
06:00AM 45.0530 -9.1430 298° West 402 463 36,000 -120 Descending FlightAware
06:01AM 45.0850 -9.2300 298° West 403 464 36,000  Level FlightAware
06:01AM 45.1300 -9.3490 298° West 404 465 36,000  Level FlightAware
06:02AM 45.1640 -9.4430 297° West 403 464 36,000  Level FlightAware
06:03AM 45.1960 -9.5300 298° West 401 461 36,000  Level FlightAware
06:04AM 45.2370 -9.6420 297° West 399 459 36,000 60 Level FlightAware
06:04AM 45.2660 -9.7220 297° West 398 458 36,100 60 Climbing FlightAware
06:05AM 45.3070 -9.8370 297° West 396 456 36,100 -60 Level FlightAware
06:07AM 45.3725 -10.0657 292° West  Level FlightAware Approximate
06:07AM 45.3870 -10.0570 292° West 391 450 36,000  Level FlightAware
06:07AM 45.4240 -10.1620 297° West 391 450 36,000  Level FlightAware
06:09AM 45.5030 -10.3830 297° West 394 453 36,000  Level FlightAware
06:10AM 45.5340 -10.4730 296° West 391 450 36,100  Climbing FlightAware
06:10AM 45.5730 -10.5830 297° West 389 448 36,000  Descending FlightAware
06:11AM 45.6120 -10.6930 297° West 387 445 36,100  Climbing FlightAware
06:12AM 45.6480 -10.7960 297° West 386 444 36,000 -120 Descending FlightAware
06:13AM 45.6740 -10.8730 296° West 386 444 36,000  Level FlightAware
06:13AM 45.7000 -10.9510 296° West 386 444 36,000 60 Level FlightAware
06:14AM 45.7540 -11.1040 297° West 390 449 36,100  Climbing FlightAware
06:15AM 45.7620 -11.1280 296° West 393 452 36,000 -120 Descending FlightAware
06:16AM 45.7890 -11.2080 296° West 393 452 36,000  Level FlightAware
06:16AM 45.8160 -11.2880 296° West 393 452 36,000  Level FlightAware
06:17AM 45.8430 -11.3670 296° West 393 452 36,000  Level FlightAware
06:18AM 45.8710 -11.4470 297° West 393 452 36,000  Level FlightAware
06:18AM 45.9040 -11.5470 295° West 393 452 36,000  Level FlightAware
06:19AM 45.9310 -11.6270 296° West 393 452 36,000  Level FlightAware
06:20AM 45.9590 -11.7070 297° West 393 452 36,000  Level FlightAware
06:20AM 45.7370 -11.0550 116° Southeast 36,000  Level FlightAware
06:23AM 45.8064 -11.3838 287° West  Level Estimated
06:24AM 45.8388 -11.5395 287° West  Level Estimated
06:25AM 45.8711 -11.6953 287° West  Level Estimated
06:26AM 45.9031 -11.8513 286° West  Level Estimated
06:27AM 45.9349 -12.0075 286° West  Level Estimated
06:28AM 45.9665 -12.1638 286° West  Level Estimated
06:29AM 45.9979 -12.3204 286° West  Level Estimated
06:30AM 46.0291 -12.4771 286° West  Level Estimated
06:31AM 46.0601 -12.6340 286° West  Level Estimated
06:32AM 46.0908 -12.7910 286° West  Level Estimated
06:33AM 46.1213 -12.9483 286° West  Level Estimated
06:34AM 46.1516 -13.1057 286° West  Level Estimated
06:35AM 46.1818 -13.2633 285° West  Level Estimated
06:36AM 46.2116 -13.4211 285° West  Level Estimated
06:37AM 46.2413 -13.5790 285° West  Level Estimated
06:38AM 46.2707 -13.7371 285° West  Level Estimated
06:39AM 46.3000 -13.8954 285° West  Level Estimated
06:40AM 46.3290 -14.0538 285° West  Level Estimated
06:41AM 46.3578 -14.2124 285° West  Level Estimated
06:42AM 46.3863 -14.3708 285° West  Level Estimated
06:43AM 46.4146 -14.5295 285° West  Level Estimated
06:44AM 46.4427 -14.6882 284° West  Level Estimated
06:45AM 46.4705 -14.8472 284° West  Level Estimated
06:46AM 46.4982 -15.0063 284° West  Level Estimated
06:47AM 46.5256 -15.1656 284° West  Level Estimated
06:48AM 46.5528 -15.3250 284° West  Level Estimated
06:49AM 46.5797 -15.4846 284° West  Level Estimated
06:50AM 46.6065 -15.6443 284° West  Level Estimated
06:51AM 46.6330 -15.8042 284° West  Level Estimated
06:52AM 46.6593 -15.9643 284° West  Level Estimated
06:53AM 46.6854 -16.1245 283° West  Level Estimated
06:54AM 46.7113 -16.2849 283° West  Level Estimated
06:55AM 46.7369 -16.4454 283° West  Level Estimated
06:56AM 46.7623 -16.6061 283° West  Level Estimated
06:57AM 46.7875 -16.7669 283° West  Level Estimated
06:58AM 46.8124 -16.9279 283° West  Level Estimated
06:59AM 46.8372 -17.0890 283° West  Level Estimated
07:00AM 46.8617 -17.2502 283° West  Level Estimated
07:01AM 46.8859 -17.4117 282° West  Level Estimated
07:02AM 46.9100 -17.5732 282° West  Level Estimated
07:03AM 46.9338 -17.7349 282° West  Level Estimated
07:04AM 46.9574 -17.8968 282° West  Level Estimated
07:05AM 46.9808 -18.0588 282° West  Level Estimated
07:06AM 47.0039 -18.2209 282° West  Level Estimated
07:07AM 47.0269 -18.3834 282° West  Level Estimated
07:08AM 47.0496 -18.5461 282° West  Level Estimated
07:09AM 47.0721 -18.7089 282° West  Level Estimated
07:10AM 47.0943 -18.8718 281° West  Level Estimated
07:11AM 47.1163 -19.0348 281° West  Level Estimated
07:11AM 48.0000 -20.0000 291° West 425 489 36,000  Level ETMS Enhanced Traffic Management System
07:12AM 47.1381 -19.1980 281° West  Level Estimated
07:13AM 47.1597 -19.3614 281° West  Level Estimated
07:14AM 47.1810 -19.5248 281° West  Level Estimated
07:15AM 47.2021 -19.6884 281° West  Level Estimated
07:16AM 47.2229 -19.8521 281° West  Level Estimated
07:17AM 48.2864 -21.1628 290° West 425 489 36,000  Level FlightAware Transoceanic
07:18AM 48.3263 -21.3299 290° West 425 489 36,000  Level FlightAware Transoceanic
07:19AM 48.3660 -21.4974 290° West 425 489 36,000  Level FlightAware Transoceanic
07:20AM 48.4055 -21.6650 289° West 425 489 36,000  Level FlightAware Transoceanic
07:21AM 48.4447 -21.8330 289° West 425 489 36,000  Level FlightAware Transoceanic
07:22AM 48.4837 -22.0012 289° West 425 489 36,000  Level FlightAware Transoceanic
07:23AM 48.5224 -22.1697 289° West 425 489 36,000  Level FlightAware Transoceanic
07:24AM 48.5609 -22.3384 289° West 425 489 36,000  Level FlightAware Transoceanic
07:25AM 48.5991 -22.5074 289° West 425 489 36,000  Level FlightAware Transoceanic
07:26AM 48.6371 -22.6766 289° West 425 489 36,000  Level FlightAware Transoceanic
07:27AM 48.6748 -22.8461 289° West 425 489 36,000  Level FlightAware Transoceanic
07:28AM 48.7123 -23.0158 288° West 425 489 36,000  Level FlightAware Transoceanic
07:29AM 48.7496 -23.1858 288° West 425 489 36,000  Level FlightAware Transoceanic
07:30AM 48.7866 -23.3560 288° West 425 489 36,000  Level FlightAware Transoceanic
07:31AM 48.8233 -23.5265 288° West 425 489 36,000  Level FlightAware Transoceanic
07:32AM 48.8598 -23.6973 288° West 425 489 36,000  Level FlightAware Transoceanic
07:33AM 48.8960 -23.8683 288° West 425 489 36,000  Level FlightAware Transoceanic
07:34AM 48.9320 -24.0395 288° West 425 489 36,000  Level FlightAware Transoceanic
07:35AM 48.9677 -24.2110 288° West 425 489 36,000  Level FlightAware Transoceanic
07:36AM 49.0032 -24.3827 287° West 425 489 36,000  Level FlightAware Transoceanic
07:37AM 49.0384 -24.5547 287° West 425 489 36,000  Level FlightAware Transoceanic
07:38AM 49.0734 -24.7269 287° West 425 489 36,000  Level FlightAware Transoceanic
07:39AM 49.1081 -24.8993 287° West 425 489 36,000  Level FlightAware Transoceanic
07:40AM 49.1425 -25.0720 287° West 425 489 36,000  Level FlightAware Transoceanic
07:41AM 49.1767 -25.2450 287° West 425 489 36,000  Level FlightAware Transoceanic
07:42AM 49.2107 -25.4181 287° West 425 489 36,000 1,860 Level FlightAware Transoceanic
07:42AM 49.1500 -25.0000 287° West 415 478 38,000  Climbing ETMS Enhanced Traffic Management System
07:43AM 49.2443 -25.5916 286° West 425 489 36,000 -1,080 Descending FlightAware Transoceanic
07:44AM 49.2777 -25.7652 286° West 425 489 36,000  Level FlightAware Transoceanic
07:45AM 49.3109 -25.9391 286° West 425 489 36,000  Level FlightAware Transoceanic
07:46AM 49.3438 -26.1132 286° West 425 489 36,000  Level FlightAware Transoceanic
07:47AM 49.3764 -26.2875 286° West 425 489 36,000 960 Level FlightAware Transoceanic
07:48AM 49.3748 -26.1907 286° West 415 478 38,000 960 Climbing FlightAware Transoceanic
07:49AM 49.4059 -26.3617 286° West 415 478 38,000  Level FlightAware Transoceanic
07:50AM 49.4367 -26.5329 285° West 415 478 38,000  Level FlightAware Transoceanic
07:51AM 49.4674 -26.7043 285° West 415 478 38,000  Level FlightAware Transoceanic
07:52AM 49.4977 -26.8759 285° West 415 478 38,000  Level FlightAware Transoceanic
07:53AM 49.5278 -27.0477 285° West 415 478 38,000  Level FlightAware Transoceanic
07:54AM 49.5576 -27.2198 285° West 415 478 38,000  Level FlightAware Transoceanic
07:55AM 49.5872 -27.3920 285° West 415 478 38,000  Level FlightAware Transoceanic
07:56AM 49.6166 -27.5645 285° West 415 478 38,000  Level FlightAware Transoceanic
07:57AM 49.6456 -27.7371 285° West 415 478 38,000  Level FlightAware Transoceanic
07:58AM 49.6744 -27.9100 284° West 415 478 38,000  Level FlightAware Transoceanic
07:59AM 49.7030 -28.0831 284° West 415 478 38,000  Level FlightAware Transoceanic
08:00AM 49.7313 -28.2564 284° West 415 478 38,000  Level FlightAware Transoceanic
08:01AM 49.7593 -28.4298 284° West 415 478 38,000  Level FlightAware Transoceanic
08:02AM 49.7871 -28.6035 284° West 415 478 38,000  Level FlightAware Transoceanic
08:03AM 49.8147 -28.7774 284° West 415 478 38,000  Level FlightAware Transoceanic
08:04AM 49.8419 -28.9515 284° West 415 478 38,000  Level FlightAware Transoceanic
08:05AM 49.8689 -29.1258 283° West 415 478 38,000  Level FlightAware Transoceanic
08:06AM 49.8957 -29.3002 283° West 415 478 38,000  Level FlightAware Transoceanic
08:07AM 49.9221 -29.4749 283° West 415 478 38,000  Level FlightAware Transoceanic
08:08AM 49.9484 -29.6497 283° West 415 478 38,000  Level FlightAware Transoceanic
08:09AM 49.9743 -29.8248 283° West 415 478 38,000  Level FlightAware Transoceanic
08:10AM 49.9743 -30.0007 270° West  Level Estimated
08:11AM 49.9740 -30.1766 270° West  Level Estimated
08:12AM 49.9735 -30.3526 270° West  Level Estimated
08:13AM 49.9727 -30.5285 270° West  Level Estimated
08:14AM 49.9716 -30.7044 270° West  Level Estimated
08:15AM 49.9703 -30.8789 269° West  Level Estimated
08:16AM 49.9687 -31.0533 269° West  Level Estimated
08:17AM 49.9668 -31.2278 269° West  Level Estimated
08:18AM 49.9647 -31.4022 269° West  Level Estimated
08:19AM 49.9623 -31.5766 269° West  Level Estimated
08:20AM 49.9597 -31.7510 269° West  Level Estimated
08:21AM 49.9568 -31.9253 269° West  Level Estimated
08:22AM 49.9536 -32.0997 268° West  Level Estimated
08:23AM 49.9502 -32.2740 268° West  Level Estimated
08:24AM 49.9465 -32.4483 268° West  Level Estimated
08:25AM 49.9426 -32.6225 268° West  Level Estimated
08:26AM 49.9384 -32.7968 268° West  Level Estimated
08:27AM 49.9339 -32.9710 268° West  Level Estimated
08:28AM 49.9292 -33.1451 268° West  Level Estimated
08:29AM 49.9242 -33.3193 268° West  Level Estimated
08:30AM 49.9189 -33.4934 267° West  Level Estimated
08:31AM 49.9134 -33.6674 267° West  Level Estimated
08:32AM 49.9076 -33.8415 267° West  Level Estimated
08:33AM 49.9016 -34.0154 267° West  Level Estimated
08:34AM 49.8953 -34.1894 267° West  Level Estimated
08:35AM 49.8888 -34.3633 267° West  Level Estimated
08:36AM 49.8820 -34.5371 267° West  Level Estimated
08:37AM 49.8749 -34.7109 266° West  Level Estimated
08:38AM 49.8676 -34.8846 266° West  Level Estimated
08:39AM 49.8600 -35.0583 266° West  Level Estimated
08:40AM 49.8521 -35.2319 266° West  Level Estimated
08:41AM 49.8440 -35.4055 266° West  Level Estimated
08:42AM 49.8357 -35.5790 266° West  Level Estimated
08:43AM 49.8270 -35.7525 266° West  Level Estimated
08:44AM 49.8181 -35.9259 266° West  Level Estimated
08:45AM 49.8090 -36.0992 265° West  Level Estimated
08:46AM 49.7996 -36.2724 265° West  Level Estimated
08:47AM 49.7899 -36.4456 265° West  Level Estimated
08:48AM 49.7800 -36.6188 265° West  Level Estimated
08:49AM 49.7698 -36.7918 265° West  Level Estimated
08:50AM 49.7594 -36.9648 265° West  Level Estimated
08:51AM 49.7487 -37.1377 265° West  Level Estimated
08:52AM 49.7378 -37.3105 264° West  Level Estimated
08:53AM 49.7266 -37.4832 264° West  Level Estimated
08:54AM 49.7151 -37.6559 264° West  Level Estimated
08:55AM 49.7034 -37.8285 264° West  Level Estimated
08:56AM 49.6914 -38.0010 264° West  Level Estimated
08:57AM 49.6792 -38.1734 264° West  Level Estimated
08:58AM 49.6667 -38.3457 264° West  Level Estimated
08:59AM 49.6540 -38.5179 264° West  Level Estimated
09:00AM 49.6410 -38.6901 263° West  Level Estimated
09:01AM 49.6277 -38.8621 263° West  Level Estimated
09:02AM 49.6142 -39.0341 263° West  Level Estimated
09:03AM 49.6004 -39.2059 263° West  Level Estimated
09:04AM 49.5864 -39.3777 263° West  Level Estimated
09:05AM 49.5722 -39.5494 263° West  Level Estimated
09:06AM 49.5576 -39.7209 263° West  Level Estimated
09:07AM 49.5429 -39.8924 262° West  Level Estimated
09:08AM 49.5278 -40.0637 262° West  Level Estimated
09:09AM 49.5125 -40.2353 262° West  Level Estimated
09:10AM 49.4969 -40.4068 262° West  Level Estimated
09:11AM 49.4811 -40.5782 262° West  Level Estimated
09:12AM 49.4650 -40.7494 262° West  Level Estimated
09:13AM 49.4487 -40.9206 262° West  Level Estimated
09:14AM 49.4321 -41.0916 262° West  Level Estimated
09:15AM 49.4153 -41.2625 261° West  Level Estimated
09:16AM 49.3982 -41.4333 261° West  Level Estimated
09:17AM 49.3809 -41.6040 261° West  Level Estimated
09:18AM 49.3633 -41.7745 261° West  Level Estimated
09:19AM 49.3455 -41.9450 261° West  Level Estimated
09:20AM 49.3274 -42.1153 261° West  Level Estimated
09:21AM 49.3091 -42.2854 261° West  Level Estimated
09:22AM 49.2905 -42.4555 261° West  Level Estimated
09:23AM 49.2716 -42.6254 260° West  Level Estimated
09:24AM 49.2525 -42.7952 260° West  Level Estimated
09:25AM 49.2332 -42.9649 260° West  Level Estimated
09:26AM 49.2136 -43.1344 260° West  Level Estimated
09:27AM 49.1938 -43.3038 260° West  Level Estimated
09:28AM 49.1737 -43.4730 260° West  Level Estimated
09:29AM 49.1534 -43.6422 260° West  Level Estimated
09:30AM 49.1328 -43.8111 260° West  Level Estimated
09:31AM 49.1120 -43.9800 259° West  Level Estimated
09:32AM 49.0910 -44.1487 259° West  Level Estimated
09:33AM 49.0696 -44.3172 259° West  Level Estimated
09:34AM 49.0481 -44.4856 259° West  Level Estimated
09:35AM 49.0263 -44.6539 259° West  Level Estimated
09:36AM 49.0043 -44.8220 259° West  Level Estimated
09:37AM 48.9820 -44.9900 259° West  Level Estimated
09:38AM 48.9594 -45.1578 259° West  Level Estimated
09:39AM 48.9367 -45.3254 258° West  Level Estimated
09:40AM 48.9137 -45.4929 258° West  Level Estimated
09:41AM 48.8904 -45.6603 258° West  Level Estimated
09:42AM 48.8669 -45.8275 258° West  Level Estimated
09:43AM 48.8432 -45.9945 258° West  Level Estimated
09:44AM 48.8192 -46.1614 258° West  Level Estimated
09:45AM 48.7949 -46.3281 258° West  Level Estimated
09:46AM 48.7705 -46.4947 257° West  Level Estimated
09:47AM 48.7458 -46.6611 257° West  Level Estimated
09:48AM 48.7209 -46.8273 257° West  Level Estimated
09:49AM 48.6957 -46.9934 257° West  Level Estimated
09:50AM 48.6702 -47.1592 257° West  Level Estimated
09:51AM 48.6446 -47.3250 257° West  Level Estimated
09:52AM 48.6187 -47.4905 257° West  Level Estimated
09:53AM 48.5926 -47.6559 257° West  Level Estimated
09:54AM 48.5662 -47.8211 256° West  Level Estimated
09:55AM 48.5396 -47.9862 256° West  Level Estimated
09:56AM 48.5127 -48.1510 256° West  Level Estimated
09:57AM 48.4857 -48.3157 256° West  Level Estimated
09:58AM 48.4584 -48.4803 256° West  Level Estimated
09:59AM 48.4308 -48.6446 256° West  Level Estimated
10:00AM 48.4030 -48.8088 256° West  Level Estimated
10:01AM 48.3750 -48.9727 256° West  Level Estimated
10:02AM 48.3468 -49.1365 256° West  Level Estimated
10:03AM 48.3183 -49.3002 255° West  Level Estimated
10:04AM 48.2896 -49.4636 255° West  Level Estimated
10:05AM 48.2606 -49.6268 255° West  Level Estimated
10:06AM 48.2315 -49.7899 255° West  Level Estimated
10:07AM 48.2021 -49.9528 255° West  Level Estimated
10:08AM 48.1723 -50.1164 255° West  Level Estimated
10:09AM 48.1422 -50.2798 255° West  Level Estimated
10:09AM 49.7100 -51.2450 255° West 429 494 40,000  Level FlightAware
10:10AM 48.1120 -50.4431 255° West  Level Estimated
10:10AM 49.6730 -51.3740 246° West 429 494 40,000  Level FlightAware
10:10AM 49.6400 -51.4890 246° West 430 495 40,000  Level FlightAware
10:11AM 49.6080 -51.6010 246° West 436 502 40,000  Level FlightAware
10:12AM 49.5710 -51.7300 246° West 435 501 40,000  Level FlightAware
10:13AM 49.5380 -51.8450 246° West 432 497 40,000  Level FlightAware
10:13AM 49.5010 -51.9730 246° West 430 495 40,000  Level FlightAware
10:14AM 49.4700 -52.0770 245° Southwest 430 495 40,000  Level FlightAware
10:15AM 49.4360 -52.1940 246° West 431 496 40,000  Level FlightAware
10:15AM 49.4010 -52.3080 245° Southwest 431 496 40,000  Level FlightAware
10:16AM 49.3530 -52.4720 246° West 435 501 40,000  Level FlightAware
10:17AM 49.3230 -52.5730 246° West 435 501 40,000  Level FlightAware
10:18AM 49.2800 -52.7160 245° Southwest 434 499 40,000  Level FlightAware
10:18AM 49.2460 -52.8280 245° Southwest 433 498 40,000  Level FlightAware
10:20AM 49.1890 -53.0160 245° Southwest 428 493 40,000  Level FlightAware
10:20AM 49.1500 -53.1450 245° Southwest 426 490 40,000  Level FlightAware
10:22AM 49.0610 -53.4330 245° Southwest 423 487 40,000  Level FlightAware
10:23AM 49.0020 -53.6220 245° Southwest 423 487 40,000  Level FlightAware
10:24AM 48.9670 -53.7330 244° Southwest 428 493 40,000  Level FlightAware
10:25AM 48.9290 -53.8550 245° Southwest 427 491 40,000  Level FlightAware
10:25AM 48.8920 -53.9730 245° Southwest 419 482 40,000  Level FlightAware
10:26AM 48.8570 -54.0840 244° Southwest 421 484 40,000  Level FlightAware
10:27AM 48.8210 -54.1930 243° Southwest 421 484 40,000  Level FlightAware
10:28AM 48.7830 -54.3120 244° Southwest 422 486 40,000  Level FlightAware
10:28AM 48.7520 -54.4090 244° Southwest 423 487 40,000  Level FlightAware
10:29AM 48.7100 -54.5410 244° Southwest 434 499 40,000  Level FlightAware
10:30AM 48.6680 -54.6680 243° Southwest 434 499 40,000  Level FlightAware
10:31AM 48.6250 -54.8000 244° Southwest 436 502 40,000  Level FlightAware
10:31AM 48.5850 -54.9230 244° Southwest 433 498 40,000  Level FlightAware
10:32AM 48.5490 -55.0320 244° Southwest 433 498 40,000  Level FlightAware
10:33AM 48.5060 -55.1610 243° Southwest 436 502 40,000  Level FlightAware
10:33AM 48.4790 -55.2430 244° Southwest 438 504 40,000  Level FlightAware
10:34AM 48.4360 -55.3700 243° Southwest 440 506 40,000  Level FlightAware
10:35AM 48.4040 -55.4670 244° Southwest 440 506 40,000  Level FlightAware
10:36AM 48.3460 -55.6350 243° Southwest 435 501 40,000  Level FlightAware
10:36AM 48.3140 -55.7260 242° Southwest 435 501 40,000  Level FlightAware
10:37AM 48.2690 -55.8640 244° Southwest 437 503 40,000  Level FlightAware
10:38AM 48.2400 -55.9510 243° Southwest 437 503 40,000  Level FlightAware
10:39AM 48.2010 -56.0660 243° Southwest 437 503 40,000  Level FlightAware
10:39AM 48.1690 -56.1580 242° Southwest 437 503 40,000  Level FlightAware
10:40AM 48.1380 -56.2500 243° Southwest 437 503 40,000  Level FlightAware
10:41AM 48.0720 -56.4360 242° Southwest 431 496 40,000  Level FlightAware
10:41AM 48.0360 -56.5380 242° Southwest 433 498 40,000  Level FlightAware
10:42AM 47.9990 -56.6430 242° Southwest 435 501 40,000  Level FlightAware
10:43AM 47.9530 -56.7740 242° Southwest 430 495 40,000  Level FlightAware
10:43AM 47.9120 -56.8900 242° Southwest 434 499 40,000  Level FlightAware
10:44AM 47.8800 -56.9790 242° Southwest 434 499 40,000  Level FlightAware
10:45AM 47.8370 -57.1010 242° Southwest 430 495 40,000  Level FlightAware
10:46AM 47.7970 -57.2110 242° Southwest 426 490 40,000  Level FlightAware
10:46AM 47.7580 -57.3200 242° Southwest 431 496 40,000 -120 Level FlightAware
10:47AM 47.7190 -57.4260 241° Southwest 432 497 39,900 -240 Descending FlightAware
10:48AM 47.6840 -57.5220 242° Southwest 433 498 39,700 -780 Descending FlightAware
10:48AM 47.6400 -57.6420 241° Southwest 410 472 38,800 -1,140 Descending FlightAware
10:49AM 47.6100 -57.7260 242° Southwest 405 466 38,200 -480 Descending FlightAware
10:50AM 47.5740 -57.8210 241° Southwest 405 466 38,200  Level FlightAware
10:50AM 47.5430 -57.9040 241° Southwest 405 466 38,200  Level FlightAware
10:51AM 47.5050 -58.0070 241° Southwest 405 466 38,200  Level FlightAware
10:52AM 47.4740 -58.0890 241° Southwest 405 466 38,200  Level FlightAware
10:52AM 47.4430 -58.1720 241° Southwest 405 466 38,200  Level FlightAware
10:53AM 47.4120 -58.2540 241° Southwest 405 466 38,200  Level FlightAware
10:54AM 47.3810 -58.3360 241° Southwest 405 466 38,200  Level FlightAware
10:55AM 47.3420 -58.4390 241° Southwest 405 466 38,200 -1,500 Level FlightAware
10:55AM 47.2470 -58.6990 242° Southwest 421 484 36,000 -1,560 Descending FlightAware
10:56AM 47.2040 -58.8110 241° Southwest 419 482 36,000  Level FlightAware
10:57AM 47.1650 -58.9140 241° Southwest 417 480 36,000  Level FlightAware
10:57AM 47.1230 -59.0210 240° Southwest 416 479 36,000  Level FlightAware
10:58AM 47.0850 -59.1200 241° Southwest 415 478 36,000  Level FlightAware
10:59AM 47.0470 -59.2180 240° Southwest 413 475 36,000  Level FlightAware
11:00AM 47.0030 -59.3310 240° Southwest 417 480 36,000  Level FlightAware
11:00AM 46.9660 -59.4280 241° Southwest 420 483 36,000  Level FlightAware
11:01AM 46.9230 -59.5370 240° Southwest 417 480 36,000  Level FlightAware
11:02AM 46.8850 -59.6340 240° Southwest 414 476 36,000  Level FlightAware
11:02AM 46.8470 -59.7300 240° Southwest 415 478 36,000  Level FlightAware
11:03AM 46.8030 -59.8410 240° Southwest 416 479 36,000  Level FlightAware
11:04AM 46.7630 -59.9410 240° Southwest 414 476 36,000  Level FlightAware
11:04AM 46.7250 -60.0370 240° Southwest 414 476 36,000  Level FlightAware
11:05AM 46.6860 -60.1340 240° Southwest 416 479 36,000  Level FlightAware
11:06AM 46.6430 -60.2400 239° Southwest 415 478 36,000  Level FlightAware
11:07AM 46.5990 -60.3500 240° Southwest 415 478 36,000  Level FlightAware
11:07AM 46.5600 -60.4470 240° Southwest 415 478 36,000  Level FlightAware
11:08AM 46.5210 -60.5410 239° Southwest 415 478 36,000  Level FlightAware
11:09AM 46.4780 -60.6470 240° Southwest 416 479 36,000  Level FlightAware
11:09AM 46.4400 -60.7410 240° Southwest 418 481 36,000  Level FlightAware
11:10AM 46.3990 -60.8410 239° Southwest 417 480 36,000  Level FlightAware
11:11AM 46.3540 -60.9500 239° Southwest 420 483 36,000  Level FlightAware
11:11AM 46.3140 -61.0470 239° Southwest 419 482 36,000  Level FlightAware
11:12AM 46.2700 -61.1530 239° Southwest 419 482 36,000  Level FlightAware
11:13AM 46.2290 -61.2490 238° Southwest 418 481 36,000  Level FlightAware
11:13AM 46.1900 -61.3430 239° Southwest 417 480 36,000  Level FlightAware
11:14AM 46.1440 -61.4540 239° Southwest 419 482 36,000  Level FlightAware
11:15AM 46.1040 -61.5480 238° Southwest 420 483 36,000  Level FlightAware
11:16AM 46.0590 -61.6530 238° Southwest 419 482 36,000  Level FlightAware
11:16AM 46.0200 -61.7450 239° Southwest 416 479 36,000  Level FlightAware
11:17AM 45.9830 -61.8300 238° Southwest 416 479 36,000  Level FlightAware
11:18AM 45.9330 -61.9510 239° Southwest 415 478 36,000  Level FlightAware
11:18AM 45.9010 -62.0260 239° Southwest 416 479 36,000  Level FlightAware
11:19AM 45.8580 -62.1230 238° Southwest 416 479 36,000  Level FlightAware
11:20AM 45.8230 -62.2030 238° Southwest 416 479 36,000  Level FlightAware
11:20AM 45.7890 -62.2830 239° Southwest 416 479 36,000  Level FlightAware
11:21AM 45.7450 -62.3820 238° Southwest 416 479 36,000  Level FlightAware
11:22AM 45.7110 -62.4620 239° Southwest 416 479 36,000  Level FlightAware
11:23AM 45.6760 -62.5410 238° Southwest 416 479 36,000  Level FlightAware
11:23AM 45.6410 -62.6200 238° Southwest 416 479 36,000  Level FlightAware
11:24AM 45.6070 -62.7000 239° Southwest 416 479 36,000  Level FlightAware
11:25AM 45.5630 -62.7990 238° Southwest 416 479 36,000  Level FlightAware
11:25AM 45.5290 -62.8780 238° Southwest 416 479 36,000  Level FlightAware
11:26AM 45.4940 -62.9570 238° Southwest 416 479 36,000  Level FlightAware
11:27AM 45.4590 -63.0360 238° Southwest 416 479 36,000  Level FlightAware
11:27AM 45.4240 -63.1150 238° Southwest 416 479 36,000  Level FlightAware
11:28AM 45.3810 -63.2140 238° Southwest 416 479 36,000  Level FlightAware
11:30AM 45.2000 -63.6100 237° Southwest 422 486 36,000  Level FlightAware
11:30AM 45.1460 -63.7290 237° Southwest 421 484 36,000  Level FlightAware
11:31AM 45.0850 -63.8620 237° Southwest 423 487 36,000  Level FlightAware
11:32AM 45.0390 -63.9630 237° Southwest 424 488 36,000  Level FlightAware
11:33AM 44.9910 -64.0680 237° Southwest 426 490 36,000  Level FlightAware
11:34AM 44.9490 -64.1590 237° Southwest 426 490 36,000  Level FlightAware
11:34AM 44.8970 -64.2690 236° Southwest 425 489 36,000  Level FlightAware
11:35AM 44.8440 -64.3840 237° Southwest 426 490 36,000  Level FlightAware
11:36AM 44.7950 -64.4890 237° Southwest 427 491 36,000  Level FlightAware
11:37AM 44.7490 -64.5870 237° Southwest 426 490 36,000  Level FlightAware
11:37AM 44.7040 -64.6810 236° Southwest 425 489 36,000  Level FlightAware
11:38AM 44.6620 -64.7710 237° Southwest 427 491 36,000  Level FlightAware
11:39AM 44.6090 -64.8820 236° Southwest 427 491 36,000  Level FlightAware
11:39AM 44.5680 -64.9690 237° Southwest 426 490 36,000  Level FlightAware
11:40AM 44.5230 -65.0620 236° Southwest 426 490 36,000  Level FlightAware
11:41AM 44.4730 -65.1660 236° Southwest 426 490 36,000  Level FlightAware
11:41AM 44.4280 -65.2600 236° Southwest 427 491 36,000  Level FlightAware
11:42AM 44.3810 -65.3580 236° Southwest 429 494 36,000  Level FlightAware
11:43AM 44.3360 -65.4520 236° Southwest 430 495 36,000  Level FlightAware
11:44AM 44.2840 -65.5570 235° Southwest 429 494 36,000  Level FlightAware
11:44AM 44.2390 -65.6510 236° Southwest 429 494 36,000  Level FlightAware
11:45AM 44.1960 -65.7390 236° Southwest 430 495 36,000  Level FlightAware
11:46AM 44.1600 -65.8130 236° Southwest 430 495 36,000  Level FlightAware
11:46AM 44.1040 -65.9260 235° Southwest 430 495 36,000  Level FlightAware
11:47AM 44.0520 -66.0300 235° Southwest 430 495 36,000  Level FlightAware
11:48AM 44.0070 -66.1220 236° Southwest 430 495 36,000  Level FlightAware
11:48AM 43.9610 -66.2140 235° Southwest 433 498 36,000  Level FlightAware
11:49AM 43.9100 -66.3160 235° Southwest 432 497 36,000  Level FlightAware
11:50AM 43.8650 -66.4070 236° Southwest 431 496 36,000  Level FlightAware
11:51AM 43.8180 -66.5000 235° Southwest 431 496 36,000  Level FlightAware
11:51AM 43.7670 -66.6010 235° Southwest 429 494 36,000  Level FlightAware
11:52AM 43.7210 -66.6930 235° Southwest 430 495 36,000  Level FlightAware
11:53AM 43.6690 -66.7950 235° Southwest 429 494 36,000  Level FlightAware
11:53AM 43.6240 -66.8840 235° Southwest 428 493 36,000  Level FlightAware
11:54AM 43.5730 -66.9840 235° Southwest 432 497 36,000  Level FlightAware
11:55AM 43.5310 -67.0790 239° Southwest 426 490 36,000  Level FlightAware
11:55AM 43.4930 -67.1720 241° Southwest 429 494 36,000  Level FlightAware
11:56AM 43.4470 -67.2810 240° Southwest 427 491 36,000  Level FlightAware
11:57AM 43.4060 -67.3770 240° Southwest 428 493 36,000  Level FlightAware
11:58AM 43.3660 -67.4710 240° Southwest 427 491 36,000  Level FlightAware
11:58AM 43.3220 -67.5750 240° Southwest 425 489 36,000  Level FlightAware
11:59AM 43.2810 -67.6720 240° Southwest 426 490 36,000  Level FlightAware
12:00PM 43.2360 -67.7770 240° Southwest 427 491 36,000  Level FlightAware
12:00PM 43.1950 -67.8720 239° Southwest 427 491 36,000  Level FlightAware
12:01PM 43.1520 -67.9700 239° Southwest 428 493 36,000  Level FlightAware
12:02PM 43.1210 -68.0440 240° Southwest 428 493 36,000  Level FlightAware
12:03PM 43.0430 -68.2230 239° Southwest 427 491 36,000  Level FlightAware
12:04PM 43.0030 -68.3150 239° Southwest 426 490 36,000  Level FlightAware
12:06PM 42.8660 -68.6240 239° Southwest 432 497 36,000  Level FlightAware
12:08PM 42.7380 -68.9120 239° Southwest 433 498 36,000  Level FlightAware
12:08PM 42.7122 -68.9697 239° Southwest 432 497 36,000  Level Boston Center
12:09PM 42.6667 -69.0500 232° Southwest 440 506 36,000  Level Moncton Center
12:15PM 42.2740 -69.9340 232° Southwest 435 501 36,000  Level FlightAware
12:16PM 42.2290 -70.0280 237° Southwest 431 496 36,000  Level FlightAware
12:17PM 42.1450 -70.2000 237° Southwest 439 505 36,000  Level FlightAware
12:18PM 42.0760 -70.3410 237° Southwest 439 505 36,000  Level FlightAware
12:19PM 42.0320 -70.4310 237° Southwest 440 506 36,000  Level FlightAware
12:20PM 41.9820 -70.5340 237° Southwest 441 507 36,000  Level FlightAware
12:20PM 41.9390 -70.6210 236° Southwest 443 510 36,000  Level FlightAware
12:21PM 41.8980 -70.7050 237° Southwest 442 509 36,000  Level FlightAware
12:22PM 41.8440 -70.8120 236° Southwest 441 507 36,000 -60 Level FlightAware
12:22PM 41.7860 -70.9280 236° Southwest 443 510 35,900 -540 Descending FlightAware
12:23PM 41.7320 -71.0370 236° Southwest 439 505 35,200 -1,020 Descending FlightAware
12:24PM 41.6810 -71.1400 236° Southwest 438 504 34,400 -1,020 Descending FlightAware
12:25PM 41.6350 -71.2290 235° Southwest 441 507 33,800 -1,020 Descending FlightAware
12:25PM 41.5840 -71.3320 237° Southwest 441 507 33,000 -1,440 Descending FlightAware
12:26PM 41.5190 -71.4600 236° Southwest 442 509 31,400 -2,040 Descending FlightAware
12:27PM 41.4740 -71.5480 236° Southwest 440 506 29,800 -2,280 Descending FlightAware
12:28PM 41.4280 -71.6370 235° Southwest 434 499 28,400 -2,100 Descending FlightAware
12:28PM 41.3790 -71.7340 236° Southwest 429 494 26,900 -1,920 Descending FlightAware
12:29PM 41.3400 -71.8110 236° Southwest 419 482 25,900 -1,560 Descending FlightAware
12:30PM 41.2800 -71.9150 233° Southwest 410 472 24,700 -1,260 Descending FlightAware
12:31PM 41.2090 -72.0020 223° Southwest 408 470 23,700 -1,560 Descending FlightAware
12:32PM 41.1310 -72.0900 220° Southwest 401 461 21,900 -1,920 Descending FlightAware
12:33PM 41.1340 -72.0930 323° Northwest 398 458 20,200 -1,080 Descending FlightAware
12:33PM 41.0900 -72.1520 225° Southwest 398 458 20,200  Level FlightAware
12:34PM 41.0360 -72.2270 226° Southwest 398 458 20,200 -4,080 Level FlightAware
12:34PM 41.0220 -72.4320 265° West 15,600 -12,240 Descending FlightAware
12:34PM 41.0150 -72.4620 253° West 372 428 15,100 -2,040 Descending FlightAware
12:35PM 40.9890 -72.5630 251° West 354 407 13,600 -1,920 Descending FlightAware
12:36PM 40.9690 -72.6420 251° West 340 391 12,400 -960 Descending FlightAware
12:37PM 40.9270 -72.7980 250° West 278 320 11,600 -600 Descending FlightAware
12:40PM 40.7870 -72.9650 222° Southwest 262 302 10,100 -1,020 Descending FlightAware
12:42PM 40.6860 -73.1630 236° Southwest 254 292 6,700 -1,380 Descending FlightAware
12:43PM 40.6930 -73.2110 281° West 260 299 5,900 -1,500 Descending FlightAware
12:43PM 40.6950 -73.2320 277° West 260 299 5,600 -1,380 Descending FlightAware
12:44PM 40.7020 -73.2780 281° West 259 298 5,000 -1,140 Descending FlightAware
12:44PM 40.7080 -73.3250 280° West 264 304 4,600 -480 Descending FlightAware
12:44PM 40.7130 -73.3640 280° West 258 297 4,600 -660 Level FlightAware
12:45PM 40.7230 -73.4130 285° West 267 307 4,000 -900 Descending FlightAware
12:45PM 40.7450 -73.4480 310° West 250 288 3,700 -600 Descending FlightAware
12:46PM 40.7620 -73.4750 310° West 234 269 3,500 -900 Descending FlightAware
12:46PM 40.7830 -73.5100 308° West 236 272 2,900 -900 Descending FlightAware
12:47PM 40.8010 -73.5370 311° West 223 257 2,700 -480 Descending FlightAware
12:47PM 40.8100 -73.5520 308° West 212 244 2,600 -240 Descending FlightAware
12:47PM 40.8160 -73.5660 300° West 193 222 2,600  Level FlightAware
12:47PM 40.8160 -73.5720 270° West 189 217 2,600  Level FlightAware
12:48PM 40.8110 -73.5960 255° West 177 204 2,600  Level FlightAware
12:48PM 40.8070 -73.6050 240° Southwest 173 199 2,600  Level FlightAware
12:48PM 40.7970 -73.6310 243° Southwest 171 197 2,600  Level FlightAware
12:49PM 40.7810 -73.6480 219° Southwest 163 188 2,600  Level FlightAware
12:49PM 40.7750 -73.6530 212° Southwest 162 186 2,600 -600 Level FlightAware
12:50PM 40.7560 -73.6680 211° Southwest 164 189 2,200 -960 Descending FlightAware
12:50PM 40.7300 -73.6880 210° Southwest 157 181 1,600 -900 Descending FlightAware
12:51PM 40.7150 -73.7000 211° Southwest 156 180 1,300 -780 Descending FlightAware
12:51PM 40.6980 -73.7140 212° Southwest 133 153 900 -780 Descending FlightAware
12:51PM 40.6850 -73.7240 210° Southwest 133 153 600 -780 Descending FlightAware
12:52PM 40.6680 -73.7370 210° Southwest 127 146 200 -840 Descending FlightAware
12:52PM 40.6520 -73.7500 212° Southwest 134 154 -420 Descending FlightAware